createdAt,value
2017-11-29T00:02:14.897Z,20.73
2017-11-29T00:04:42.444Z,22.23
2017-11-29T00:07:10.012Z,19.93
2017-11-29T00:09:37.553Z,18.67
2017-11-29T00:12:05.884Z,16.27
2017-11-29T00:14:33.420Z,16.67
2017-11-29T00:17:01.672Z,15.67
2017-11-29T00:19:29.973Z,14.30
2017-11-29T00:21:57.531Z,12.13
2017-11-29T00:24:25.075Z,13.83
2017-11-29T00:26:53.418Z,13.80
2017-11-29T00:29:20.963Z,16.73
2017-11-29T00:31:48.520Z,14.90
2017-11-29T00:34:16.056Z,13.97
2017-11-29T00:36:43.619Z,13.80
2017-11-29T00:39:11.158Z,17.00
2017-11-29T00:41:38.788Z,14.47
2017-11-29T00:44:07.092Z,14.03
2017-11-29T00:46:34.644Z,13.10
2017-11-29T00:49:02.947Z,15.03
2017-11-29T00:51:30.509Z,14.53
2017-11-29T00:53:58.037Z,13.10
2017-11-29T00:56:26.359Z,15.80
2017-11-29T00:58:53.890Z,15.73
2017-11-29T01:01:43.400Z,17.10
2017-11-29T01:04:10.937Z,18.97
2017-11-29T01:06:38.501Z,21.97
2017-11-29T01:09:06.044Z,25.97
2017-11-29T01:11:33.607Z,25.33
2017-11-29T01:14:01.141Z,26.40
2017-11-29T01:16:29.480Z,24.67
2017-11-29T01:18:57.008Z,23.53
2017-11-29T01:21:24.564Z,20.47
2017-11-29T01:23:52.112Z,18.30
2017-11-29T01:26:19.681Z,19.43
2017-11-29T01:28:47.215Z,17.97
2017-11-29T01:31:15.544Z,24.50
2017-11-29T01:33:43.088Z,23.43
2017-11-29T01:36:10.649Z,23.30
2017-11-29T01:38:38.182Z,18.57
2017-11-29T01:41:06.512Z,19.93
2017-11-29T01:43:34.058Z,16.17
2017-11-29T01:46:01.616Z,17.47
2017-11-29T01:48:29.160Z,19.67
2017-11-29T01:50:56.699Z,17.60
2017-11-29T01:53:25.028Z,16.87
2017-11-29T01:55:52.569Z,18.17
2017-11-29T01:58:20.148Z,19.77
2017-11-29T02:00:48.461Z,17.17
2017-11-29T02:03:16.787Z,17.30
2017-11-29T02:05:44.320Z,16.83
2017-11-29T02:08:11.887Z,18.23
2017-11-29T02:10:39.425Z,16.50
2017-11-29T02:13:07.762Z,15.10
2017-11-29T02:15:35.301Z,16.03
2017-11-29T02:18:02.863Z,16.50
2017-11-29T02:20:30.392Z,12.90
2017-11-29T02:22:57.951Z,18.83
2017-11-29T02:25:26.244Z,16.50
2017-11-29T02:27:53.801Z,14.57
2017-11-29T02:30:21.345Z,16.53
2017-11-29T02:32:48.946Z,17.87
2017-11-29T02:35:16.488Z,16.90
2017-11-29T02:37:44.053Z,16.27
2017-11-29T02:40:23.423Z,19.53
2017-11-29T02:42:50.981Z,18.33
2017-11-29T02:45:18.516Z,14.40
2017-11-29T02:47:46.083Z,14.20
2017-11-29T02:50:13.627Z,16.13
2017-11-29T02:52:41.175Z,17.87
2017-11-29T02:55:08.702Z,14.07
2017-11-29T02:57:37.031Z,11.60
2017-11-29T03:00:04.567Z,13.37
2017-11-29T03:02:32.124Z,14.00
2017-11-29T03:04:59.660Z,15.80
2017-11-29T03:07:27.216Z,15.67
2017-11-29T03:09:54.743Z,14.97
2017-11-29T03:12:22.310Z,16.20
2017-11-29T03:14:49.850Z,18.60
2017-11-29T03:17:17.408Z,13.37
2017-11-29T03:20:01.976Z,12.77
2017-11-29T03:22:29.528Z,12.50
2017-11-29T03:24:57.060Z,16.63
2017-11-29T03:27:24.619Z,12.13
2017-11-29T03:29:52.151Z,15.67
2017-11-29T03:32:19.717Z,14.53
2017-11-29T03:34:48.021Z,14.43
2017-11-29T03:37:15.579Z,14.67
2017-11-29T03:39:43.116Z,14.13
2017-11-29T03:42:11.439Z,14.13
2017-11-29T03:44:38.975Z,20.40
2017-11-29T03:47:06.540Z,17.17
2017-11-29T03:49:34.064Z,13.43
2017-11-29T03:52:01.633Z,17.30
2017-11-29T03:54:29.944Z,15.77
2017-11-29T03:56:57.515Z,16.60
2017-11-29T03:59:25.061Z,18.23
2017-11-29T04:01:52.620Z,19.83
2017-11-29T04:04:20.158Z,18.03
2017-11-29T04:06:48.487Z,17.73
2017-11-29T04:09:16.025Z,18.57
2017-11-29T04:11:43.610Z,16.73
2017-11-29T04:14:11.151Z,20.90
2017-11-29T04:16:38.676Z,17.67
2017-11-29T04:19:06.241Z,16.30
2017-11-29T04:21:33.781Z,17.17
2017-11-29T04:24:02.117Z,15.53
2017-11-29T04:26:29.648Z,14.80
2017-11-29T04:28:57.211Z,12.63
2017-11-29T04:31:24.742Z,14.20
2017-11-29T04:33:53.064Z,13.93
2017-11-29T04:36:20.597Z,15.07
2017-11-29T04:38:48.168Z,14.43
2017-11-29T04:41:15.705Z,16.20
2017-11-29T04:43:44.293Z,15.20
2017-11-29T04:46:11.842Z,13.63
2017-11-29T04:48:40.177Z,17.10
2017-11-29T04:51:07.713Z,18.20
2017-11-29T04:53:35.269Z,17.80
2017-11-29T04:56:02.804Z,16.83
2017-11-29T04:58:31.137Z,24.13
2017-11-29T05:00:58.680Z,21.20
2017-11-29T05:03:26.243Z,24.63
2017-11-29T05:05:53.775Z,25.43
2017-11-29T05:08:21.341Z,31.10
2017-11-29T05:10:55.300Z,29.53
2017-11-29T05:13:22.868Z,25.87
2017-11-29T05:15:50.404Z,23.97
2017-11-29T05:18:17.963Z,26.43
2017-11-29T05:20:45.500Z,23.97
2017-11-29T05:23:13.056Z,26.53
2017-11-29T05:25:40.606Z,21.93
2017-11-29T05:28:08.166Z,23.43
2017-11-29T05:30:35.709Z,24.10
2017-11-29T05:33:04.056Z,26.33
2017-11-29T05:35:31.596Z,33.97
2017-11-29T05:37:59.155Z,29.70
2017-11-29T05:40:26.703Z,24.67
2017-11-29T05:42:54.271Z,27.67
2017-11-29T05:45:21.804Z,24.60
2017-11-29T05:47:49.379Z,28.37
2017-11-29T05:50:16.937Z,24.93
2017-11-29T05:52:44.506Z,28.90
2017-11-29T05:55:12.056Z,26.20
2017-11-29T05:57:39.624Z,28.77
2017-11-29T06:00:07.167Z,26.57
2017-11-29T06:02:34.723Z,25.27
2017-11-29T06:05:02.256Z,28.93
2017-11-29T06:07:30.583Z,23.33
2017-11-29T06:09:58.116Z,23.63
2017-11-29T06:12:25.651Z,25.53
2017-11-29T06:14:54.005Z,25.67
2017-11-29T06:17:21.576Z,17.10
2017-11-29T06:19:49.153Z,18.00
2017-11-29T06:22:17.473Z,18.90
2017-11-29T06:24:45.039Z,19.20
2017-11-29T06:27:12.589Z,22.70
2017-11-29T06:29:40.171Z,18.20
2017-11-29T06:51:27.397Z,25.00
2017-11-29T06:53:54.964Z,25.73
2017-11-29T06:56:22.511Z,27.80
2017-11-29T06:58:50.078Z,26.30
2017-11-29T07:01:17.616Z,20.20
2017-11-29T07:03:45.179Z,29.43
2017-11-29T07:06:13.472Z,29.30
2017-11-29T07:08:41.050Z,21.07
2017-11-29T07:11:08.626Z,18.90
2017-11-29T07:13:36.212Z,18.80
2017-11-29T07:16:03.747Z,17.23
2017-11-29T07:18:31.308Z,21.17
2017-11-29T07:20:58.892Z,16.33
2017-11-29T07:23:26.431Z,20.17
2017-11-29T07:25:54.003Z,17.30
2017-11-29T07:28:21.564Z,20.53
2017-11-29T07:30:49.163Z,20.43
2017-11-29T07:33:16.714Z,15.33
2017-11-29T07:35:44.291Z,16.03
2017-11-29T07:38:11.826Z,18.80
2017-11-29T07:40:40.173Z,16.40
2017-11-29T07:43:07.719Z,17.20
2017-11-29T07:45:35.290Z,20.93
2017-11-29T07:48:02.862Z,15.83
2017-11-29T07:50:30.434Z,15.40
2017-11-29T07:52:58.749Z,18.47
2017-11-29T07:55:26.321Z,18.70
2017-11-29T07:57:53.869Z,19.43
2017-11-29T08:00:21.444Z,20.50
2017-11-29T08:02:48.990Z,27.37
2017-11-29T08:05:16.545Z,21.50
2017-11-29T08:07:44.089Z,19.30
2017-11-29T08:10:12.411Z,17.90
2017-11-29T08:12:39.947Z,21.20
2017-11-29T08:15:07.505Z,21.50
2017-11-29T08:17:35.087Z,20.17
2017-11-29T08:20:02.636Z,21.73
2017-11-29T08:22:30.220Z,20.77
2017-11-29T08:24:57.783Z,24.87
2017-11-29T08:27:25.364Z,21.73
2017-11-29T08:29:52.886Z,25.53
2017-11-29T08:32:20.452Z,22.53
2017-11-29T08:34:47.993Z,23.67
2017-11-29T08:37:15.548Z,25.87
2017-11-29T08:39:43.087Z,26.47
2017-11-29T08:42:10.640Z,25.03
2017-11-29T08:44:38.949Z,20.27
2017-11-29T08:47:06.510Z,15.20
2017-11-29T08:49:34.072Z,18.93
2017-11-29T08:52:01.616Z,18.13
2017-11-29T08:54:29.167Z,13.70
2017-11-29T08:56:56.729Z,20.90
2017-11-29T08:59:24.259Z,14.27
2017-11-29T09:01:52.595Z,16.27
2017-11-29T09:04:20.127Z,18.73
2017-11-29T09:06:47.685Z,16.40
2017-11-29T09:09:15.228Z,16.13
2017-11-29T09:11:43.550Z,18.73
2017-11-29T09:14:11.090Z,20.93
2017-11-29T09:16:38.627Z,18.87
2017-11-29T09:19:06.956Z,13.03
2017-11-29T09:21:34.500Z,10.77
2017-11-29T09:24:02.060Z,14.07
2017-11-29T09:26:29.585Z,11.67
2017-11-29T09:28:57.907Z,15.00
2017-11-29T09:31:25.439Z,15.00
2017-11-29T09:33:53.012Z,14.70
2017-11-29T09:36:20.566Z,13.43
2017-11-29T09:38:48.137Z,13.30
2017-11-29T09:41:15.685Z,14.63
2017-11-29T09:43:43.252Z,18.20
2017-11-29T09:46:10.788Z,14.00
2017-11-29T09:48:38.353Z,15.07
2017-11-29T09:51:05.879Z,16.43
2017-11-29T09:53:33.434Z,15.13
2017-11-29T09:56:00.964Z,15.27
2017-11-29T09:58:28.528Z,16.17
2017-11-29T10:00:56.067Z,15.20
2017-11-29T10:03:23.617Z,17.37
2017-11-29T10:05:51.150Z,14.47
2017-11-29T10:08:19.473Z,14.10
2017-11-29T10:10:47.000Z,14.83
2017-11-29T10:13:14.568Z,13.00
2017-11-29T10:15:42.100Z,10.90
2017-11-29T10:18:10.426Z,14.10
2017-11-29T10:20:37.987Z,12.10
2017-11-29T10:23:05.524Z,13.50
2017-11-29T10:25:33.090Z,13.90
2017-11-29T10:28:00.623Z,12.90
2017-11-29T10:30:28.964Z,14.80
2017-11-29T10:32:56.502Z,12.40
2017-11-29T10:35:24.060Z,11.63
2017-11-29T10:37:51.584Z,14.53
2017-11-29T10:40:19.144Z,11.60
2017-11-29T10:42:46.692Z,11.90
2017-11-29T10:45:15.009Z,14.87
2017-11-29T10:47:42.535Z,12.03
2017-11-29T10:50:10.860Z,11.83
2017-11-29T10:52:38.672Z,15.10
2017-11-29T10:55:06.991Z,12.47
2017-11-29T10:57:34.539Z,10.93
2017-11-29T11:00:02.100Z,13.93
2017-11-29T11:02:29.647Z,16.93
2017-11-29T11:04:57.200Z,12.67
2017-11-29T11:07:25.499Z,19.00
2017-11-29T11:09:53.067Z,11.13
2017-11-29T11:12:20.603Z,12.97
2017-11-29T11:14:48.196Z,15.10
2017-11-29T11:17:15.732Z,10.33
2017-11-29T11:19:43.284Z,10.13
2017-11-29T11:22:11.579Z,13.23
2017-11-29T11:24:39.154Z,13.00
2017-11-29T11:27:06.694Z,10.80
2017-11-29T11:29:34.252Z,12.67
2017-11-29T11:32:01.777Z,16.73
2017-11-29T11:34:30.096Z,14.53
2017-11-29T11:36:57.636Z,13.73
2017-11-29T11:39:25.204Z,10.23
2017-11-29T11:41:52.740Z,10.37
2017-11-29T11:44:21.074Z,10.80
2017-11-29T11:46:48.603Z,11.77
2017-11-29T11:49:16.160Z,13.50
2017-11-29T11:51:43.696Z,10.83
2017-11-29T11:54:12.028Z,14.53
2017-11-29T11:56:39.574Z,12.33
2017-11-29T11:59:07.132Z,8.80
2017-11-29T12:01:34.664Z,10.90
2017-11-29T12:04:02.244Z,12.70
2017-11-29T12:06:29.777Z,12.60
2017-11-29T12:08:58.105Z,8.50
2017-11-29T12:11:25.635Z,10.27
2017-11-29T12:13:53.187Z,6.70
2017-11-29T12:16:20.724Z,11.93
2017-11-29T12:18:49.066Z,14.57
2017-11-29T12:21:16.589Z,10.50
2017-11-29T12:23:44.138Z,15.67
2017-11-29T12:26:11.717Z,12.23
2017-11-29T12:28:39.248Z,11.33
2017-11-29T12:31:07.565Z,10.73
2017-11-29T12:33:35.100Z,10.43
2017-11-29T12:36:02.669Z,11.93
2017-11-29T12:38:30.209Z,14.27
2017-11-29T12:40:58.535Z,12.20
2017-11-29T12:43:26.082Z,11.60
2017-11-29T12:45:53.638Z,7.30
2017-11-29T12:48:32.915Z,9.73
2017-11-29T12:51:08.162Z,7.00
2017-11-29T12:53:36.472Z,9.23
2017-11-29T12:56:04.049Z,9.90
2017-11-29T12:58:31.588Z,15.73
2017-11-29T13:00:59.154Z,11.40
2017-11-29T13:03:26.719Z,10.90
2017-11-29T13:05:54.289Z,10.77
2017-11-29T13:08:21.856Z,13.10
2017-11-29T13:10:49.437Z,21.00
2017-11-29T13:13:16.994Z,30.97
2017-11-29T13:15:44.566Z,13.53
2017-11-29T13:18:12.108Z,13.40
2017-11-29T13:20:39.687Z,9.70
2017-11-29T13:23:07.238Z,9.17
2017-11-29T13:25:35.572Z,10.57
2017-11-29T13:28:03.109Z,9.37
2017-11-29T13:30:31.447Z,11.17
2017-11-29T13:32:58.988Z,13.47
2017-11-29T13:35:26.556Z,11.07
2017-11-29T13:37:54.109Z,16.63
2017-11-29T13:40:21.689Z,12.70
2017-11-29T13:42:49.228Z,9.93
2017-11-29T13:45:16.787Z,7.60
2017-11-29T13:47:44.335Z,7.70
2017-11-29T13:50:11.899Z,9.70
2017-11-29T13:52:39.446Z,10.27
2017-11-29T13:55:07.017Z,8.57
2017-11-29T13:57:34.548Z,8.50
2017-11-29T14:00:02.881Z,7.00
2017-11-29T14:02:30.419Z,9.63
2017-11-29T14:04:57.999Z,6.13
2017-11-29T14:07:25.534Z,6.43
2017-11-29T14:09:53.113Z,6.73
2017-11-29T14:12:20.655Z,7.50
2017-11-29T14:14:48.217Z,11.90
2017-11-29T14:17:15.766Z,7.33
2017-11-29T14:19:43.343Z,6.37
2017-11-29T14:22:10.903Z,6.60
2017-11-29T14:24:38.457Z,6.57
2017-11-29T14:27:06.768Z,6.80
2017-11-29T14:29:34.363Z,7.00
2017-11-29T14:32:02.685Z,8.73
2017-11-29T14:34:30.279Z,10.33
2017-11-29T14:36:57.855Z,13.23
2017-11-29T14:39:26.175Z,10.60
2017-11-29T14:41:53.773Z,7.50
2017-11-29T14:44:21.333Z,6.97
2017-11-29T14:46:48.884Z,9.30
2017-11-29T14:49:16.464Z,11.80
2017-11-29T14:51:44.031Z,8.33
2017-11-29T14:54:12.373Z,10.60
2017-11-29T14:56:39.937Z,11.47
2017-11-29T14:59:07.489Z,10.50
2017-11-29T15:01:35.068Z,10.23
2017-11-29T15:04:02.632Z,12.77
2017-11-29T15:06:30.227Z,14.07
2017-11-29T15:08:57.782Z,13.97
2017-11-29T15:11:25.390Z,11.70
2017-11-29T15:13:52.943Z,9.87
2017-11-29T15:16:20.519Z,12.73
2017-11-29T15:18:48.110Z,11.23
2017-11-29T15:21:15.688Z,11.00
2017-11-29T15:23:44.056Z,17.83
2017-11-29T15:26:12.403Z,13.57
2017-11-29T15:28:39.995Z,13.13
2017-11-29T15:31:08.298Z,16.20
2017-11-29T15:33:35.876Z,12.80
2017-11-29T15:36:03.423Z,17.50
2017-11-29T15:38:30.982Z,12.97
2017-11-29T15:40:58.534Z,15.03
2017-11-29T15:43:26.104Z,14.07
2017-11-29T15:45:53.655Z,15.83
2017-11-29T15:48:21.223Z,11.60
2017-11-29T15:50:48.792Z,12.70
2017-11-29T15:53:16.364Z,13.23
2017-11-29T15:55:43.906Z,16.03
2017-11-29T15:58:11.495Z,15.50
2017-11-29T16:00:39.033Z,13.47
2017-11-29T16:03:06.592Z,12.70
2017-11-29T16:05:34.118Z,13.93
2017-11-29T16:08:02.448Z,17.00
2017-11-29T16:10:29.985Z,13.13
2017-11-29T16:12:57.540Z,18.13
2017-11-29T16:15:25.071Z,17.57
2017-11-29T16:17:53.411Z,18.63
2017-11-29T16:20:20.945Z,16.20
2017-11-29T16:22:48.481Z,14.70
2017-11-29T16:25:16.040Z,19.20
2017-11-29T16:27:43.572Z,17.63
2017-11-29T16:30:11.133Z,17.37
2017-11-29T16:32:39.433Z,19.30
2017-11-29T16:35:06.996Z,25.30
2017-11-29T16:37:34.530Z,18.47
2017-11-29T16:40:02.092Z,19.93
2017-11-29T16:42:30.384Z,20.07
2017-11-29T16:44:58.704Z,25.03
2017-11-29T16:47:27.484Z,18.43
2017-11-29T16:49:55.675Z,17.90
2017-11-29T16:52:23.743Z,17.60
2017-11-29T16:54:51.326Z,17.70
2017-11-29T16:57:18.855Z,15.10
2017-11-29T16:59:46.404Z,15.33
2017-11-29T17:02:13.948Z,16.73
2017-11-29T17:04:41.510Z,15.73
2017-11-29T17:07:09.038Z,19.77
2017-11-29T17:09:36.594Z,15.30
2017-11-29T17:12:04.119Z,23.20
2017-11-29T17:14:31.685Z,17.47
2017-11-29T17:16:59.226Z,22.83
2017-11-29T17:19:26.804Z,19.03
2017-11-29T17:21:55.112Z,25.80
2017-11-29T17:24:22.641Z,20.50
2017-11-29T17:26:50.208Z,19.60
2017-11-29T17:29:17.743Z,18.53
2017-11-29T17:31:45.303Z,13.27
2017-11-29T17:34:12.837Z,13.00
2017-11-29T17:36:40.409Z,19.20
2017-11-29T17:39:07.945Z,10.50
2017-11-29T17:41:35.512Z,17.40
2017-11-29T17:44:03.804Z,22.23
2017-11-29T17:46:31.355Z,14.63
2017-11-29T17:48:58.885Z,17.17
2017-11-29T17:51:26.454Z,17.07
2017-11-29T17:53:54.752Z,20.60
2017-11-29T17:56:22.312Z,16.53
2017-11-29T17:58:49.844Z,17.20
2017-11-29T18:01:18.166Z,14.87
2017-11-29T18:03:45.696Z,17.20
2017-11-29T18:06:14.023Z,18.60
2017-11-29T18:08:41.552Z,17.27
2017-11-29T18:11:09.109Z,19.50
2017-11-29T18:13:36.649Z,15.80
2017-11-29T18:16:04.972Z,16.57
2017-11-29T18:18:32.504Z,19.73
2017-11-29T18:21:00.064Z,20.80
2017-11-29T18:23:27.610Z,19.03
2017-11-29T18:25:55.180Z,20.30
2017-11-29T18:28:22.712Z,25.07
2017-11-29T18:30:50.276Z,20.00
2017-11-29T18:33:18.572Z,20.00
2017-11-29T18:35:46.891Z,20.13
2017-11-29T18:38:14.419Z,22.33
2017-11-29T18:40:41.972Z,17.20
2017-11-29T18:43:09.513Z,25.87
2017-11-29T18:45:37.838Z,18.60
2017-11-29T18:48:05.369Z,20.30
2017-11-29T18:50:33.030Z,24.27
2017-11-29T18:53:00.632Z,24.50
2017-11-29T18:55:28.310Z,23.07
2017-11-29T18:57:56.740Z,23.33
2017-11-29T19:00:24.331Z,27.90
2017-11-29T19:02:51.944Z,25.27
2017-11-29T19:05:19.554Z,28.37
2017-11-29T19:07:47.199Z,25.37
2017-11-29T19:10:14.800Z,22.00
2017-11-29T19:12:42.390Z,24.03
2017-11-29T19:15:10.724Z,30.43
2017-11-29T19:17:38.327Z,23.90
2017-11-29T19:20:06.694Z,27.03
2017-11-29T19:22:35.043Z,24.17
2017-11-29T19:25:02.629Z,22.53
2017-11-29T19:27:30.986Z,24.33
2017-11-29T19:29:58.612Z,27.27
2017-11-29T19:32:26.231Z,29.57
2017-11-29T19:34:54.641Z,30.90
2017-11-29T19:37:22.300Z,31.60
2017-11-29T19:39:49.912Z,29.90
2017-11-29T19:42:17.591Z,32.70
2017-11-29T19:44:45.183Z,33.57
2017-11-29T19:47:12.827Z,26.60
2017-11-29T19:49:41.173Z,24.57
2017-11-29T19:52:08.807Z,30.10
2017-11-29T19:54:36.446Z,26.90
2017-11-29T19:57:04.087Z,24.73
2017-11-29T19:59:32.489Z,26.97
2017-11-29T20:02:00.078Z,25.93
2017-11-29T20:04:27.717Z,26.00
2017-11-29T20:06:55.317Z,31.70
2017-11-29T20:09:22.905Z,28.07
2017-11-29T20:11:51.293Z,26.47
2017-11-29T20:14:19.638Z,24.90
2017-11-29T20:16:47.264Z,27.77
2017-11-29T20:19:14.885Z,19.30
2017-11-29T20:21:43.289Z,23.63
2017-11-29T20:24:10.869Z,25.23
2017-11-29T20:26:38.468Z,25.03
2017-11-29T20:29:06.079Z,23.50
2017-11-29T20:31:33.658Z,24.57
2017-11-29T20:34:01.255Z,27.97
2017-11-29T20:36:29.631Z,23.57
2017-11-29T20:38:57.272Z,24.83
2017-11-29T20:41:24.835Z,26.10
2017-11-29T20:43:52.418Z,27.10
2017-11-29T20:46:19.971Z,29.30
2017-11-29T20:48:47.544Z,26.20
2017-11-29T20:51:15.086Z,22.60
2017-11-29T20:53:42.657Z,30.40
2017-11-29T20:56:10.225Z,26.73
2017-11-29T20:58:37.804Z,24.30
2017-11-29T21:01:05.356Z,25.63
2017-11-29T21:03:33.700Z,31.17
2017-11-29T21:06:01.265Z,21.37
2017-11-29T21:08:28.851Z,27.23
2017-11-29T21:10:57.210Z,27.57
2017-11-29T21:13:24.819Z,21.93
2017-11-29T21:15:52.400Z,26.00
2017-11-29T21:18:19.987Z,25.60
2017-11-29T21:20:47.537Z,30.43
2017-11-29T21:23:15.107Z,28.70
2017-11-29T21:25:42.642Z,24.97
2017-11-29T21:28:10.216Z,26.80
2017-11-29T21:30:37.765Z,26.10
2017-11-29T21:33:05.401Z,26.70
2017-11-29T21:35:32.961Z,26.33
2017-11-29T21:38:00.554Z,24.00
2017-11-29T21:40:28.091Z,31.63
2017-11-29T21:42:55.657Z,30.60
2017-11-29T21:45:23.974Z,28.10
2017-11-29T21:47:51.603Z,25.67
2017-11-29T21:50:19.164Z,25.40
2017-11-29T21:52:46.755Z,22.37
2017-11-29T21:55:14.354Z,26.50
2017-11-29T21:57:44.152Z,21.83
2017-11-29T22:00:12.574Z,20.83
2017-11-29T22:02:40.199Z,22.27
2017-11-29T22:05:07.746Z,27.50
2017-11-29T22:07:36.102Z,27.90
2017-11-29T22:10:03.680Z,25.47
2017-11-29T22:12:31.240Z,28.77
2017-11-29T22:14:58.834Z,21.97
2017-11-29T22:17:26.531Z,22.83
2017-11-29T22:19:54.129Z,21.83
2017-11-29T22:25:16.539Z,22.50
2017-11-29T22:27:44.102Z,23.23
2017-11-29T22:30:11.637Z,21.03
2017-11-29T22:32:39.335Z,20.93
2017-11-29T22:35:06.864Z,22.00
2017-11-29T22:37:34.458Z,19.40
2017-11-29T22:40:02.084Z,22.50
2017-11-29T22:42:29.610Z,19.37
2017-11-29T22:44:57.175Z,22.27
2017-11-29T22:47:25.484Z,21.27
2017-11-29T22:49:53.199Z,16.67
2017-11-29T22:52:20.742Z,23.63
2017-11-29T22:54:48.308Z,23.10
2017-11-29T22:57:15.858Z,19.23
2017-11-29T22:59:43.425Z,21.53
2017-11-29T23:02:10.968Z,16.87
2017-11-29T23:04:38.523Z,18.23
2017-11-29T23:07:06.057Z,19.10
2017-11-29T23:09:33.620Z,15.80
2017-11-29T23:12:01.157Z,17.97
2017-11-29T23:14:29.482Z,17.57
2017-11-29T23:16:57.016Z,14.87
2017-11-29T23:19:24.579Z,15.27
2017-11-29T23:21:52.126Z,15.17
2017-11-29T23:24:20.447Z,19.67
2017-11-29T23:26:47.977Z,16.90
2017-11-29T23:29:15.528Z,12.60
2017-11-29T23:31:43.068Z,15.80
2017-11-29T23:34:11.419Z,19.73
2017-11-29T23:36:38.979Z,17.50
2017-11-29T23:39:06.557Z,17.43
2017-11-29T23:41:34.877Z,15.73
2017-11-29T23:44:02.426Z,14.23
2017-11-29T23:46:29.961Z,20.07
2017-11-29T23:48:58.286Z,16.13
2017-11-29T23:51:25.819Z,16.30
2017-11-29T23:53:53.376Z,16.50
2017-11-29T23:56:20.912Z,16.50
2017-11-29T23:58:48.469Z,15.57
